Terminal Aerodrome Forecast
Issued by NWS King Salmon, AK

Home | Current Version | Previous Version | Text Only | Print | Product List | Glossary On
Versions: 1 2 3 4 5 6 7 8 9 10 11 12 13 14 15 16 17 18 19
000
FTAK31 PANC 231739
TAFAKN
TAF
PAKN 231739Z 2318/2418 32009KT P6SM BKN060
     FM240300 20008KT 3SM -SN OVC015
     FM240500 20008KT 3SM -RASN OVC015
     FM240700 24010KT 4SM -RA BKN007=

USA.gov is the U.S. government's official web portal to all federal, state and local government web resources and services.